createdAt,value
2022-08-26T00:03:39.353Z,17.00
2022-08-26T00:08:42.566Z,16.70
2022-08-26T00:13:49.540Z,16.30
2022-08-26T00:18:53.232Z,16.00
2022-08-26T00:23:55.843Z,15.80
2022-08-26T00:28:58.678Z,15.70
2022-08-26T00:34:01.352Z,15.60
2022-08-26T00:39:04.869Z,15.60
2022-08-26T00:44:11.233Z,15.70
2022-08-26T00:49:23.681Z,15.60
2022-08-26T00:54:31.835Z,15.40
2022-08-26T00:59:34.617Z,15.20
2022-08-26T01:04:39.490Z,15.10
2022-08-26T01:09:42.258Z,15.10
2022-08-26T01:14:46.545Z,15.00
2022-08-26T01:20:03.580Z,14.90
2022-08-26T01:25:06.641Z,14.90
2022-08-26T01:30:11.710Z,14.90
2022-08-26T01:35:14.370Z,14.80
2022-08-26T01:40:32.088Z,14.80
2022-08-26T01:45:37.059Z,14.60
2022-08-26T01:50:41.013Z,14.60
2022-08-26T01:55:50.420Z,14.50
2022-08-26T02:00:53.349Z,14.50
2022-08-26T02:06:00.178Z,14.60
2022-08-26T02:11:03.945Z,14.50
2022-08-26T02:16:07.903Z,14.60
2022-08-26T02:21:12.480Z,14.50
2022-08-26T02:26:19.251Z,14.40
2022-08-26T02:31:22.661Z,14.40
2022-08-26T02:36:28.712Z,14.30
2022-08-26T02:41:31.911Z,15.60
2022-08-26T02:46:35.776Z,14.30
2022-08-26T02:51:39.918Z,14.40
2022-08-26T02:56:43.333Z,14.40
2022-08-26T03:01:49.402Z,14.30
2022-08-26T03:06:52.884Z,14.10
2022-08-26T03:11:55.740Z,14.10
2022-08-26T03:16:58.210Z,14.10
2022-08-26T03:22:02.388Z,14.10
2022-08-26T03:27:07.461Z,14.00
2022-08-26T03:32:10.652Z,14.00
2022-08-26T03:37:13.260Z,14.10
2022-08-26T03:42:16.106Z,14.20
2022-08-26T03:47:18.985Z,14.10
2022-08-26T03:52:21.450Z,14.00
2022-08-26T03:57:24.081Z,14.10
2022-08-26T04:02:27.271Z,14.30
2022-08-26T04:07:30.235Z,14.30
2022-08-26T04:12:36.629Z,14.50
2022-08-26T04:17:39.267Z,14.90
2022-08-26T04:22:42.464Z,15.20
2022-08-26T04:27:45.119Z,15.70
2022-08-26T04:32:50.974Z,16.10
2022-08-26T04:37:53.846Z,16.50
2022-08-26T04:42:56.874Z,17.10
2022-08-26T04:48:00.464Z,18.10
2022-08-26T04:53:04.932Z,18.50
2022-08-26T04:58:10.607Z,19.00
2022-08-26T05:03:13.734Z,19.60
2022-08-26T05:08:19.088Z,20.00
2022-08-26T05:13:23.281Z,20.60
2022-08-26T05:18:30.048Z,21.30
2022-08-26T05:23:35.673Z,21.80
2022-08-26T05:28:38.317Z,22.10
2022-08-26T05:33:44.080Z,22.20
2022-08-26T05:38:46.981Z,22.40
2022-08-26T05:43:49.469Z,22.20
2022-08-26T05:48:53.073Z,21.50
2022-08-26T05:53:56.803Z,21.40
2022-08-26T05:59:02.352Z,21.50
2022-08-26T06:04:07.995Z,21.60
2022-08-26T06:09:11.154Z,21.90
2022-08-26T06:14:14.016Z,22.10
2022-08-26T06:19:17.345Z,22.40
2022-08-26T06:24:38.602Z,22.70
2022-08-26T06:29:41.922Z,23.10
2022-08-26T06:34:44.764Z,23.30
2022-08-26T06:39:47.971Z,23.50
2022-08-26T06:44:53.894Z,23.70
2022-08-26T06:49:56.701Z,23.90
2022-08-26T06:54:59.259Z,24.10
2022-08-26T07:00:02.266Z,24.20
2022-08-26T07:05:06.453Z,24.40
2022-08-26T07:10:10.756Z,24.50
2022-08-26T07:15:13.530Z,24.50
2022-08-26T07:20:18.169Z,24.80
2022-08-26T07:25:21.865Z,25.00
2022-08-26T07:30:25.689Z,25.20
2022-08-26T07:35:28.194Z,25.30
2022-08-26T07:40:31.597Z,25.30
2022-08-26T07:45:34.583Z,25.40
2022-08-26T07:50:50.480Z,25.80
2022-08-26T07:55:53.276Z,26.10
2022-08-26T08:00:56.287Z,26.30
2022-08-26T08:05:58.945Z,26.20
2022-08-26T08:11:02.390Z,26.20
2022-08-26T08:16:05.858Z,26.60
2022-08-26T08:21:21.557Z,26.70
2022-08-26T08:26:27.379Z,26.90
2022-08-26T08:31:56.036Z,27.00
2022-08-26T08:36:55.906Z,27.20
2022-08-26T08:42:26.122Z,27.40
2022-08-26T08:47:36.045Z,27.30
2022-08-26T08:52:41.481Z,27.70
2022-08-26T08:58:13.608Z,27.60
2022-08-26T09:03:31.422Z,27.90
2022-08-26T09:08:36.964Z,28.10
2022-08-26T09:13:44.712Z,28.30
2022-08-26T09:19:19.796Z,28.60
2022-08-26T09:24:22.433Z,28.60
2022-08-26T09:29:40.958Z,28.40
2022-08-26T09:34:59.906Z,28.40
2022-08-26T09:40:35.863Z,28.40
2022-08-26T09:45:50.315Z,28.50
2022-08-26T09:51:04.031Z,28.50
2022-08-26T09:56:15.666Z,28.40
2022-08-26T10:01:24.341Z,28.50
2022-08-26T10:06:28.432Z,28.50
2022-08-26T10:11:47.761Z,28.50
2022-08-26T10:17:11.226Z,28.30
2022-08-26T10:22:40.767Z,28.30
2022-08-26T10:28:01.168Z,28.30
2022-08-26T10:33:14.632Z,28.90
2022-08-26T10:38:23.969Z,29.30
2022-08-26T10:43:51.994Z,28.80
2022-08-26T10:49:00.788Z,28.60
2022-08-26T10:54:31.313Z,28.70
2022-08-26T10:59:36.791Z,28.70
2022-08-26T11:04:54.827Z,28.60
2022-08-26T11:09:58.958Z,29.00
2022-08-26T11:15:06.283Z,29.40
2022-08-26T11:20:13.694Z,29.50
2022-08-26T11:25:18.972Z,29.30
2022-08-26T11:30:25.153Z,29.10
2022-08-26T11:35:34.860Z,28.90
2022-08-26T11:40:42.170Z,29.20
2022-08-26T11:45:48.725Z,28.90
2022-08-26T11:51:02.454Z,29.00
2022-08-26T11:56:26.120Z,29.10
2022-08-26T12:01:38.983Z,28.90
2022-08-26T12:06:48.766Z,29.40
2022-08-26T12:11:52.761Z,29.50
2022-08-26T12:17:14.179Z,29.50
2022-08-26T12:22:24.992Z,29.50
2022-08-26T12:27:31.463Z,29.40
2022-08-26T12:32:35.236Z,29.50
2022-08-26T12:37:41.960Z,29.50
2022-08-26T12:42:46.909Z,29.70
2022-08-26T12:47:57.431Z,29.70
2022-08-26T12:53:05.254Z,29.70
2022-08-26T12:58:25.999Z,29.90
2022-08-26T13:03:46.056Z,29.80
2022-08-26T13:08:58.176Z,29.60
2022-08-26T13:14:11.347Z,29.70
2022-08-26T13:19:17.121Z,29.70
2022-08-26T13:24:39.929Z,29.40
2022-08-26T13:29:42.541Z,29.00
2022-08-26T13:34:51.260Z,28.50
2022-08-26T13:39:57.101Z,28.90
2022-08-26T13:44:59.906Z,28.60
2022-08-26T13:50:03.090Z,28.90
2022-08-26T13:55:07.253Z,29.00
2022-08-26T14:00:11.139Z,28.40
2022-08-26T14:05:15.293Z,28.70
2022-08-26T14:10:18.102Z,29.10
2022-08-26T14:15:21.395Z,29.20
2022-08-26T14:20:27.394Z,29.20
2022-08-26T14:25:30.881Z,28.90
2022-08-26T14:30:33.891Z,28.90
2022-08-26T14:35:36.524Z,29.00
2022-08-26T14:40:40.350Z,28.90
2022-08-26T14:45:45.203Z,28.90
2022-08-26T14:50:47.929Z,28.70
2022-08-26T14:55:50.648Z,28.60
2022-08-26T15:00:53.331Z,28.70
2022-08-26T15:05:56.454Z,28.70
2022-08-26T15:10:59.640Z,28.60
2022-08-26T15:16:02.927Z,28.50
2022-08-26T15:21:10.548Z,28.50
2022-08-26T15:26:16.414Z,28.20
2022-08-26T15:31:20.210Z,28.20
2022-08-26T15:36:22.893Z,27.80
2022-08-26T15:41:26.031Z,27.90
2022-08-26T15:46:28.726Z,28.10
2022-08-26T15:51:45.533Z,28.10
2022-08-26T15:56:51.789Z,28.20
2022-08-26T16:01:57.081Z,28.10
2022-08-26T16:06:59.718Z,28.00
2022-08-26T16:12:02.649Z,27.90
2022-08-26T16:17:07.561Z,27.80
2022-08-26T16:22:10.128Z,27.60
2022-08-26T16:27:13.086Z,27.40
2022-08-26T16:32:15.968Z,27.20
2022-08-26T16:37:20.974Z,27.10
2022-08-26T16:42:26.096Z,27.00
2022-08-26T16:47:28.875Z,26.60
2022-08-26T16:52:31.549Z,26.40
2022-08-26T16:57:40.108Z,26.30
2022-08-26T17:02:43.214Z,26.10
2022-08-26T17:07:46.134Z,25.60
2022-08-26T17:12:49.345Z,25.60
2022-08-26T17:17:53.178Z,25.40
2022-08-26T17:22:56.737Z,25.10
2022-08-26T17:27:59.968Z,24.80
2022-08-26T17:33:10.910Z,24.50
2022-08-26T17:38:14.032Z,24.30
2022-08-26T17:43:17.347Z,24.00
2022-08-26T17:48:19.815Z,23.00
2022-08-26T17:53:22.940Z,22.40
2022-08-26T17:58:25.732Z,21.90
2022-08-26T18:03:28.341Z,21.60
2022-08-26T18:08:30.858Z,21.40
2022-08-26T18:13:33.432Z,21.30
2022-08-26T18:18:36.974Z,21.00
2022-08-26T18:23:39.602Z,20.90
2022-08-26T18:28:42.178Z,20.70
2022-08-26T18:33:45.329Z,20.50
2022-08-26T18:38:50.375Z,20.20
2022-08-26T18:43:54.848Z,20.10
2022-08-26T18:48:58.170Z,20.40
2022-08-26T18:54:02.932Z,20.50
2022-08-26T18:59:08.445Z,20.40
2022-08-26T19:04:15.713Z,20.40
2022-08-26T19:09:19.239Z,20.30
2022-08-26T19:14:23.765Z,20.10
2022-08-26T19:19:26.366Z,19.90
2022-08-26T19:24:29.113Z,20.40
2022-08-26T19:29:34.733Z,20.60
2022-08-26T19:34:37.480Z,20.40
2022-08-26T19:39:40.205Z,20.20
2022-08-26T19:45:01.554Z,20.30
2022-08-26T19:50:11.632Z,19.70
2022-08-26T19:55:17.082Z,19.70
2022-08-26T20:00:23.807Z,20.10
2022-08-26T20:05:27.207Z,20.00
2022-08-26T20:10:30.137Z,20.00
2022-08-26T20:15:32.806Z,20.00
2022-08-26T20:20:54.327Z,20.00
2022-08-26T20:25:57.504Z,20.10
2022-08-26T20:31:00.697Z,20.00
2022-08-26T20:36:03.951Z,19.90
2022-08-26T20:41:10.527Z,20.00
2022-08-26T20:46:18.803Z,19.90
2022-08-26T20:51:23.718Z,19.90
2022-08-26T20:56:26.373Z,19.80
2022-08-26T21:01:34.595Z,19.70
2022-08-26T21:06:38.410Z,19.60
2022-08-26T21:11:41.612Z,19.60
2022-08-26T21:16:45.195Z,19.40
2022-08-26T21:21:48.621Z,19.30
2022-08-26T21:26:51.270Z,19.10
2022-08-26T21:31:54.399Z,19.30
2022-08-26T21:36:57.367Z,19.30
2022-08-26T21:42:00.739Z,19.40
2022-08-26T21:47:05.006Z,19.30
2022-08-26T21:52:07.676Z,19.10
2022-08-26T21:57:10.359Z,19.10
2022-08-26T22:02:13.520Z,19.30
2022-08-26T22:07:18.100Z,19.30
2022-08-26T22:12:21.177Z,19.40
2022-08-26T22:17:24.057Z,19.40
2022-08-26T22:22:26.653Z,19.30
2022-08-26T22:27:29.299Z,19.30
2022-08-26T22:32:32.252Z,19.20
2022-08-26T22:37:34.833Z,19.10
2022-08-26T22:42:37.528Z,18.80
2022-08-26T22:47:40.811Z,18.70
2022-08-26T22:52:43.367Z,18.60
2022-08-26T22:57:45.925Z,18.70
2022-08-26T23:02:48.440Z,18.70
2022-08-26T23:07:51.226Z,18.60
2022-08-26T23:12:54.163Z,18.30
2022-08-26T23:17:58.785Z,18.00
2022-08-26T23:23:01.928Z,17.70
2022-08-26T23:28:04.657Z,17.50
2022-08-26T23:33:07.476Z,17.50
2022-08-26T23:38:10.262Z,17.80
2022-08-26T23:43:16.658Z,17.90
2022-08-26T23:48:19.455Z,18.70
2022-08-26T23:53:22.969Z,17.90
2022-08-26T23:58:25.687Z,17.90
